Westover, Maryland
Current Conditions -  °F | °C
As of 4:54 PM on Friday 24 Oct 2014 (Local Time) from KSBY Reporting Station
Clear Clear  
Wind Chill: 67°   Ceiling: Unl
Heat Index: 67°   Visibility: 10mi
Dew Point: 45°   Wind: 10mph
Humidity: 45%   Direction: 280°W
Pressure: 29.86"   Gusts: NA
Location:  38.12°N, 75.71°W
Report Text: KSBY 242054Z 28009KT 10SM CLR 19/07 A2986 RMK AO2 SLP114 T01940072 53002
Loading
Personal Weather Stations






























Interactive Weather Map New forecast layout! Learn more

10-Day Weather Forecast

Advertisements
Track Severe Weather on mobile